sensor_id;sensor_type;location;lat;lon;timestamp;pressure;altitude;pressure_sealevel;temperature;humidity
9523;BME280;63165;43.016;25.784;2023-03-15T00:01:02;98960.53;;;7.38;42.71
9523;BME280;63165;43.016;25.784;2023-03-15T00:03:31;98965.78;;;7.37;42.80
9523;BME280;63165;43.016;25.784;2023-03-15T00:06:02;98954.50;;;7.36;42.85
9523;BME280;63165;43.016;25.784;2023-03-15T00:08:30;98958.88;;;7.34;43.28
9523;BME280;63165;43.016;25.784;2023-03-15T00:10:59;98963.31;;;7.29;43.15
9523;BME280;63165;43.016;25.784;2023-03-15T00:13:26;98944.56;;;7.15;43.05
9523;BME280;63165;43.016;25.784;2023-03-15T00:15:56;98947.84;;;7.23;43.31
9523;BME280;63165;43.016;25.784;2023-03-15T00:18:24;98940.34;;;7.09;43.93
9523;BME280;63165;43.016;25.784;2023-03-15T00:20:53;98934.22;;;7.10;44.00
9523;BME280;63165;43.016;25.784;2023-03-15T00:23:20;98931.66;;;7.09;44.25
9523;BME280;63165;43.016;25.784;2023-03-15T00:25:49;98924.78;;;7.06;44.30
9523;BME280;63165;43.016;25.784;2023-03-15T00:28:17;98916.31;;;6.96;44.70
9523;BME280;63165;43.016;25.784;2023-03-15T00:30:45;98892.63;;;6.67;44.87
9523;BME280;63165;43.016;25.784;2023-03-15T00:33:13;98901.03;;;6.81;45.00
9523;BME280;63165;43.016;25.784;2023-03-15T00:35:42;98887.31;;;6.73;44.98
9523;BME280;63165;43.016;25.784;2023-03-15T00:38:12;98888.13;;;6.75;45.00
9523;BME280;63165;43.016;25.784;2023-03-15T00:40:40;98875.22;;;6.72;45.30
9523;BME280;63165;43.016;25.784;2023-03-15T00:43:07;98874.50;;;6.64;45.52
9523;BME280;63165;43.016;25.784;2023-03-15T00:45:35;98883.06;;;6.69;45.45
9523;BME280;63165;43.016;25.784;2023-03-15T00:48:02;98889.94;;;6.71;45.54
9523;BME280;63165;43.016;25.784;2023-03-15T00:50:29;98866.00;;;6.55;45.65
9523;BME280;63165;43.016;25.784;2023-03-15T00:52:57;98881.56;;;6.57;45.93
9523;BME280;63165;43.016;25.784;2023-03-15T00:55:26;98872.03;;;6.57;46.13
9523;BME280;63165;43.016;25.784;2023-03-15T00:57:53;98870.34;;;6.55;46.03
9523;BME280;63165;43.016;25.784;2023-03-15T01:00:21;98868.47;;;6.61;45.98
9523;BME280;63165;43.016;25.784;2023-03-15T01:02:49;98866.88;;;6.54;46.27
9523;BME280;63165;43.016;25.784;2023-03-15T01:05:17;98856.41;;;6.59;46.53
9523;BME280;63165;43.016;25.784;2023-03-15T01:07:44;98858.88;;;6.65;46.46
9523;BME280;63165;43.016;25.784;2023-03-15T01:10:12;98835.66;;;6.56;46.60
9523;BME280;63165;43.016;25.784;2023-03-15T01:12:41;98845.06;;;6.63;46.81
9523;BME280;63165;43.016;25.784;2023-03-15T01:15:11;98836.56;;;6.55;46.92
9523;BME280;63165;43.016;25.784;2023-03-15T01:17:39;98843.41;;;6.59;46.88
9523;BME280;63165;43.016;25.784;2023-03-15T01:20:08;98828.13;;;6.44;47.15
9523;BME280;63165;43.016;25.784;2023-03-15T01:22:36;98841.78;;;6.55;47.30
9523;BME280;63165;43.016;25.784;2023-03-15T01:25:04;98829.59;;;6.57;47.46
9523;BME280;63165;43.016;25.784;2023-03-15T01:27:31;98828.66;;;6.59;47.04
9523;BME280;63165;43.016;25.784;2023-03-15T01:30:00;98830.41;;;6.59;47.21
9523;BME280;63165;43.016;25.784;2023-03-15T01:32:28;98813.22;;;6.53;47.43
9523;BME280;63165;43.016;25.784;2023-03-15T01:34:55;98795.22;;;6.43;47.79
9523;BME280;63165;43.016;25.784;2023-03-15T01:37:22;98814.09;;;6.51;47.78
9523;BME280;63165;43.016;25.784;2023-03-15T01:39:50;98810.69;;;6.49;47.86
9523;BME280;63165;43.016;25.784;2023-03-15T01:42:17;98791.00;;;6.37;48.14
9523;BME280;63165;43.016;25.784;2023-03-15T01:44:53;98731.03;;;6.06;48.31
9523;BME280;63165;43.016;25.784;2023-03-15T01:47:22;98804.69;;;6.45;48.61
9523;BME280;63165;43.016;25.784;2023-03-15T01:49:56;98789.50;;;6.27;48.80
9523;BME280;63165;43.016;25.784;2023-03-15T01:52:25;98796.34;;;6.31;48.79
9523;BME280;63165;43.016;25.784;2023-03-15T01:54:57;98791.31;;;6.23;48.60
9523;BME280;63165;43.016;25.784;2023-03-15T01:57:30;98797.22;;;6.30;48.95
9523;BME280;63165;43.016;25.784;2023-03-15T02:00:03;98799.88;;;6.27;49.09
9523;BME280;63165;43.016;25.784;2023-03-15T02:02:39;98794.88;;;6.17;49.32
9523;BME280;63165;43.016;25.784;2023-03-15T02:05:14;98803.38;;;6.24;49.34
9523;BME280;63165;43.016;25.784;2023-03-15T02:07:45;98787.22;;;6.10;49.48
9523;BME280;63165;43.016;25.784;2023-03-15T02:10:17;98794.06;;;6.14;50.10
9523;BME280;63165;43.016;25.784;2023-03-15T02:12:50;98795.88;;;6.10;50.26
9523;BME280;63165;43.016;25.784;2023-03-15T02:15:18;98807.03;;;6.15;50.18
9523;BME280;63165;43.016;25.784;2023-03-15T02:17:48;98788.06;;;6.10;50.72
9523;BME280;63165;43.016;25.784;2023-03-15T02:20:23;98794.06;;;6.14;50.92
9523;BME280;63165;43.016;25.784;2023-03-15T02:22:54;98782.06;;;6.08;51.30
9523;BME280;63165;43.016;25.784;2023-03-15T02:25:30;98788.84;;;6.15;51.78
9523;BME280;63165;43.016;25.784;2023-03-15T02:28:06;98779.38;;;6.11;51.54
9523;BME280;63165;43.016;25.784;2023-03-15T02:30:34;98784.56;;;6.13;52.26
9523;BME280;63165;43.016;25.784;2023-03-15T02:33:03;98789.59;;;6.20;51.53
9523;BME280;63165;43.016;25.784;2023-03-15T02:35:32;98778.56;;;6.09;51.53
9523;BME280;63165;43.016;25.784;2023-03-15T02:38:00;98793.06;;;6.21;52.04
9523;BME280;63165;43.016;25.784;2023-03-15T02:40:29;98791.31;;;6.21;52.34
9523;BME280;63165;43.016;25.784;2023-03-15T02:42:59;98799.97;;;6.22;52.09
9523;BME280;63165;43.016;25.784;2023-03-15T02:45:31;98801.75;;;6.18;52.48
9523;BME280;63165;43.016;25.784;2023-03-15T02:48:01;98822.50;;;6.20;52.19
9523;BME280;63165;43.016;25.784;2023-03-15T02:50:29;98802.59;;;6.19;52.42
9523;BME280;63165;43.016;25.784;2023-03-15T02:52:56;98811.16;;;6.26;52.58
9523;BME280;63165;43.016;25.784;2023-03-15T02:55:23;98802.56;;;6.22;52.45
9523;BME280;63165;43.016;25.784;2023-03-15T02:57:50;98770.09;;;5.99;52.57
9523;BME280;63165;43.016;25.784;2023-03-15T03:00:18;98811.97;;;6.28;52.53
9523;BME280;63165;43.016;25.784;2023-03-15T03:02:47;98793.19;;;6.13;53.01
9523;BME280;63165;43.016;25.784;2023-03-15T03:05:15;98819.00;;;6.22;52.86
9523;BME280;63165;43.016;25.784;2023-03-15T03:07:43;98802.00;;;6.06;52.92
9523;BME280;63165;43.016;25.784;2023-03-15T03:10:14;98807.88;;;6.16;53.24
9523;BME280;63165;43.016;25.784;2023-03-15T03:12:42;98809.69;;;6.11;52.88
9523;BME280;63165;43.016;25.784;2023-03-15T03:15:10;98809.66;;;6.14;53.51
9523;BME280;63165;43.016;25.784;2023-03-15T03:17:37;98810.47;;;6.16;52.85
9523;BME280;63165;43.016;25.784;2023-03-15T03:20:09;98804.38;;;6.17;53.36
9523;BME280;63165;43.016;25.784;2023-03-15T03:22:38;98802.72;;;6.13;53.32
9523;BME280;63165;43.016;25.784;2023-03-15T03:25:06;98805.41;;;6.10;53.24
9523;BME280;63165;43.016;25.784;2023-03-15T03:27:34;98803.69;;;6.07;53.40
9523;BME280;63165;43.016;25.784;2023-03-15T03:30:02;98810.72;;;6.02;53.78
9523;BME280;63165;43.016;25.784;2023-03-15T03:32:29;98796.06;;;5.98;53.73
9523;BME280;63165;43.016;25.784;2023-03-15T03:34:57;98802.22;;;5.92;54.55
9523;BME280;63165;43.016;25.784;2023-03-15T03:37:25;98809.06;;;5.96;54.21
9523;BME280;63165;43.016;25.784;2023-03-15T03:39:55;98811.72;;;5.93;54.18
9523;BME280;63165;43.016;25.784;2023-03-15T03:42:23;98807.38;;;5.95;54.64
9523;BME280;63165;43.016;25.784;2023-03-15T03:44:50;98803.03;;;5.94;54.40
9523;BME280;63165;43.016;25.784;2023-03-15T03:47:19;98786.78;;;5.84;54.35
9523;BME280;63165;43.016;25.784;2023-03-15T03:49:46;98773.00;;;5.81;54.40
9523;BME280;63165;43.016;25.784;2023-03-15T03:52:13;98809.00;;;6.01;54.32
9523;BME280;63165;43.016;25.784;2023-03-15T03:54:42;98798.69;;;5.98;54.50
9523;BME280;63165;43.016;25.784;2023-03-15T03:57:10;98807.31;;;5.98;54.58
9523;BME280;63165;43.016;25.784;2023-03-15T03:59:37;98786.72;;;5.88;54.76
9523;BME280;63165;43.016;25.784;2023-03-15T04:02:05;98794.50;;;5.89;54.75
9523;BME280;63165;43.016;25.784;2023-03-15T04:04:45;98814.38;;;5.89;54.53
9523;BME280;63165;43.016;25.784;2023-03-15T04:07:14;98807.47;;;5.89;54.74
9523;BME280;63165;43.016;25.784;2023-03-15T04:09:46;98806.69;;;5.84;54.79
9523;BME280;63165;43.016;25.784;2023-03-15T04:12:16;98798.09;;;5.80;54.89
9523;BME280;63165;43.016;25.784;2023-03-15T04:14:44;98777.56;;;5.67;54.76
9523;BME280;63165;43.016;25.784;2023-03-15T04:17:11;98798.13;;;5.77;54.92
9523;BME280;63165;43.016;25.784;2023-03-15T04:19:41;98806.81;;;5.76;54.97
9523;BME280;63165;43.016;25.784;2023-03-15T04:22:11;98809.34;;;5.79;54.82
9523;BME280;63165;43.016;25.784;2023-03-15T04:24:40;98788.69;;;5.75;55.46
9523;BME280;63165;43.016;25.784;2023-03-15T04:27:09;98814.38;;;5.89;55.43
9523;BME280;63165;43.016;25.784;2023-03-15T04:29:39;98818.75;;;5.87;55.70
9523;BME280;63165;43.016;25.784;2023-03-15T04:32:08;98816.03;;;5.93;55.69
9523;BME280;63165;43.016;25.784;2023-03-15T04:34:38;98812.63;;;5.91;55.34
9523;BME280;63165;43.016;25.784;2023-03-15T04:37:06;98819.59;;;5.87;55.70
9523;BME280;63165;43.016;25.784;2023-03-15T04:39:33;98831.59;;;5.96;55.58
9523;BME280;63165;43.016;25.784;2023-03-15T04:42:00;98830.75;;;5.95;55.72
9523;BME280;63165;43.016;25.784;2023-03-15T04:44:29;98832.50;;;5.93;56.53
9523;BME280;63165;43.016;25.784;2023-03-15T04:46:57;98820.41;;;5.91;56.58
9523;BME280;63165;43.016;25.784;2023-03-15T04:49:25;98812.75;;;5.83;56.74
9523;BME280;63165;43.016;25.784;2023-03-15T04:51:54;98804.19;;;5.78;56.43
9523;BME280;63165;43.016;25.784;2023-03-15T04:54:24;98824.69;;;5.93;57.04
9523;BME280;63165;43.016;25.784;2023-03-15T04:56:51;98791.31;;;5.72;56.72
9523;BME280;63165;43.016;25.784;2023-03-15T04:59:19;98833.25;;;6.00;56.87
9523;BME280;63165;43.016;25.784;2023-03-15T05:01:48;98824.56;;;6.02;57.40
9523;BME280;63165;43.016;25.784;2023-03-15T05:04:15;98824.56;;;6.02;57.58
9523;BME280;63165;43.016;25.784;2023-03-15T05:06:42;98775.59;;;5.79;57.29
9523;BME280;63165;43.016;25.784;2023-03-15T05:09:09;98832.19;;;6.12;56.98
9523;BME280;63165;43.016;25.784;2023-03-15T05:11:42;98819.13;;;6.16;56.71
9523;BME280;63165;43.016;25.784;2023-03-15T05:14:10;98798.56;;;6.04;56.74
9523;BME280;63165;43.016;25.784;2023-03-15T05:16:37;98793.28;;;6.09;57.07
9523;BME280;63165;43.016;25.784;2023-03-15T05:19:05;98794.72;;;6.25;56.95
9523;BME280;63165;43.016;25.784;2023-03-15T05:21:41;98808.28;;;6.39;56.97
9523;BME280;63165;43.016;25.784;2023-03-15T05:24:09;98800.28;;;6.49;56.63
9523;BME280;63165;43.016;25.784;2023-03-15T05:26:39;98809.66;;;6.57;56.79
9523;BME280;63165;43.016;25.784;2023-03-15T05:29:06;98800.06;;;6.61;56.63
9523;BME280;63165;43.016;25.784;2023-03-15T05:31:33;98818.88;;;6.72;56.45
9523;BME280;63165;43.016;25.784;2023-03-15T05:34:01;98793.63;;;6.79;56.43
9523;BME280;63165;43.016;25.784;2023-03-15T05:36:31;98794.28;;;6.89;56.45
9523;BME280;63165;43.016;25.784;2023-03-15T05:38:58;98798.34;;;7.00;56.46
9523;BME280;63165;43.016;25.784;2023-03-15T05:41:27;98763.19;;;6.83;56.04
9523;BME280;63165;43.016;25.784;2023-03-15T05:44:00;98800.56;;;7.17;56.55
9523;BME280;63165;43.016;25.784;2023-03-15T05:46:31;98809.00;;;7.27;56.30
9523;BME280;63165;43.016;25.784;2023-03-15T05:48:58;98810.53;;;7.36;56.75
9523;BME280;63165;43.016;25.784;2023-03-15T05:51:25;98796.78;;;7.31;56.59
9523;BME280;63165;43.016;25.784;2023-03-15T05:53:54;98803.94;;;7.58;56.24
9523;BME280;63165;43.016;25.784;2023-03-15T05:56:22;98796.84;;;7.65;56.34
9523;BME280;63165;43.016;25.784;2023-03-15T05:58:49;98801.72;;;7.77;56.34
9523;BME280;63165;43.016;25.784;2023-03-15T06:01:19;98790.22;;;7.86;56.04
9523;BME280;63165;43.016;25.784;2023-03-15T06:03:49;98794.97;;;8.03;55.82
9523;BME280;63165;43.016;25.784;2023-03-15T06:06:18;98789.50;;;8.14;55.38
9523;BME280;63165;43.016;25.784;2023-03-15T06:08:45;98784.81;;;8.27;55.36
9523;BME280;63165;43.016;25.784;2023-03-15T06:11:15;98738.38;;;8.10;55.32
9523;BME280;63165;43.016;25.784;2023-03-15T06:13:43;98767.78;;;8.46;54.50
9523;BME280;63165;43.016;25.784;2023-03-15T06:16:13;98782.84;;;8.66;53.63
9523;BME280;63165;43.016;25.784;2023-03-15T06:18:44;98759.81;;;8.81;52.68
9523;BME280;63165;43.016;25.784;2023-03-15T06:21:12;98750.00;;;8.89;52.10
9523;BME280;63165;43.016;25.784;2023-03-15T06:23:41;98741.63;;;9.07;52.86
9523;BME280;63165;43.016;25.784;2023-03-15T06:26:09;98756.75;;;9.24;52.73
9523;BME280;63165;43.016;25.784;2023-03-15T06:28:38;98746.69;;;9.39;52.10
9523;BME280;63165;43.016;25.784;2023-03-15T06:31:06;98753.94;;;9.56;52.05
9523;BME280;63165;43.016;25.784;2023-03-15T06:33:34;98745.59;;;9.73;51.93
9523;BME280;63165;43.016;25.784;2023-03-15T06:36:01;98752.75;;;9.91;51.80
9523;BME280;63165;43.016;25.784;2023-03-15T06:38:28;98752.16;;;10.08;51.21
9523;BME280;63165;43.016;25.784;2023-03-15T06:40:56;98756.72;;;10.26;50.65
9523;BME280;63165;43.016;25.784;2023-03-15T06:43:25;98741.63;;;10.36;49.82
9523;BME280;63165;43.016;25.784;2023-03-15T06:45:53;98744.22;;;10.60;49.76
9523;BME280;63165;43.016;25.784;2023-03-15T06:48:23;98745.28;;;10.78;49.40
9523;BME280;63165;43.016;25.784;2023-03-15T06:50:50;98745.84;;;10.86;48.96
9523;BME280;63165;43.016;25.784;2023-03-15T06:53:18;98755.13;;;11.17;48.33
9523;BME280;63165;43.016;25.784;2023-03-15T06:55:46;98741.28;;;11.35;47.80
9523;BME280;63165;43.016;25.784;2023-03-15T06:58:22;98744.16;;;11.50;47.45
9523;BME280;63165;43.016;25.784;2023-03-15T07:00:57;98748.31;;;11.76;47.16
9523;BME280;63165;43.016;25.784;2023-03-15T07:03:31;98718.44;;;11.80;46.44
9523;BME280;63165;43.016;25.784;2023-03-15T07:05:58;98751.72;;;12.19;46.52
9523;BME280;63165;43.016;25.784;2023-03-15T07:08:26;98738.88;;;12.33;46.12
9523;BME280;63165;43.016;25.784;2023-03-15T07:10:53;98742.28;;;12.54;46.03
9523;BME280;63165;43.016;25.784;2023-03-15T07:13:20;98750.22;;;12.72;45.82
9523;BME280;63165;43.016;25.784;2023-03-15T07:15:57;98725.75;;;12.71;45.18
9523;BME280;63165;43.016;25.784;2023-03-15T07:18:26;98754.13;;;13.01;44.58
9523;BME280;63165;43.016;25.784;2023-03-15T07:20:56;98717.59;;;12.96;44.00
9523;BME280;63165;43.016;25.784;2023-03-15T07:23:33;98742.25;;;13.30;43.57
9523;BME280;63165;43.016;25.784;2023-03-15T07:26:04;98709.22;;;13.25;43.39
9523;BME280;63165;43.016;25.784;2023-03-15T07:28:38;98708.50;;;13.40;43.56
9523;BME280;63165;43.016;25.784;2023-03-15T07:31:08;98739.41;;;13.70;43.11
9523;BME280;63165;43.016;25.784;2023-03-15T07:33:36;98688.47;;;13.55;42.55
9523;BME280;63165;43.016;25.784;2023-03-15T07:36:04;98687.28;;;13.78;41.56
9523;BME280;63165;43.016;25.784;2023-03-15T07:38:52;98719.03;;;14.08;40.46
9523;BME280;63165;43.016;25.784;2023-03-15T07:41:19;98717.47;;;14.22;39.32
9523;BME280;63165;43.016;25.784;2023-03-15T07:43:46;98727.50;;;14.31;39.14
9523;BME280;63165;43.016;25.784;2023-03-15T07:46:16;98705.38;;;14.35;38.80
9523;BME280;63165;43.016;25.784;2023-03-15T07:48:43;98710.41;;;14.55;38.96
9523;BME280;63165;43.016;25.784;2023-03-15T07:51:14;98709.66;;;14.69;38.88
9523;BME280;63165;43.016;25.784;2023-03-15T07:53:45;98708.22;;;14.80;37.95
9523;BME280;63165;43.016;25.784;2023-03-15T07:56:12;98711.88;;;14.93;37.33
9523;BME280;63165;43.016;25.784;2023-03-15T07:58:48;98687.66;;;14.86;36.47
9523;BME280;63165;43.016;25.784;2023-03-15T08:01:17;98693.00;;;15.01;35.96
9523;BME280;63165;43.016;25.784;2023-03-15T08:03:44;98691.06;;;15.04;36.02
9523;BME280;63165;43.016;25.784;2023-03-15T08:06:12;98697.22;;;15.19;36.51
9523;BME280;63165;43.016;25.784;2023-03-15T08:08:39;98666.97;;;15.10;36.26
9523;BME280;63165;43.016;25.784;2023-03-15T08:11:06;98694.63;;;15.33;35.99
9523;BME280;63165;43.016;25.784;2023-03-15T08:13:33;98668.56;;;15.29;35.76
9523;BME280;63165;43.016;25.784;2023-03-15T08:16:01;98691.78;;;15.52;36.20
9523;BME280;63165;43.016;25.784;2023-03-15T08:18:30;98693.03;;;15.61;35.45
9523;BME280;63165;43.016;25.784;2023-03-15T08:20:57;98672.97;;;15.59;34.80
9523;BME280;63165;43.016;25.784;2023-03-15T08:23:24;98679.59;;;15.66;34.63
9523;BME280;63165;43.016;25.784;2023-03-15T08:25:52;98678.09;;;15.76;34.70
9523;BME280;63165;43.016;25.784;2023-03-15T08:28:19;98674.47;;;15.79;34.80
9523;BME280;63165;43.016;25.784;2023-03-15T08:30:47;98661.94;;;15.82;35.08
9523;BME280;63165;43.016;25.784;2023-03-15T08:33:16;98665.03;;;15.89;34.94
9523;BME280;63165;43.016;25.784;2023-03-15T08:35:45;98674.19;;;15.98;35.38
9523;BME280;63165;43.016;25.784;2023-03-15T08:38:12;98665.53;;;15.96;35.12
9523;BME280;63165;43.016;25.784;2023-03-15T08:41:01;98674.84;;;16.01;34.44
9523;BME280;63165;43.016;25.784;2023-03-15T08:44:00;98660.03;;;15.99;34.00
9523;BME280;63165;43.016;25.784;2023-03-15T08:46:27;98682.56;;;16.19;33.63
9523;BME280;63165;43.016;25.784;2023-03-15T08:48:54;98680.50;;;16.24;33.73
9523;BME280;63165;43.016;25.784;2023-03-15T08:51:27;98683.41;;;16.34;33.78
9523;BME280;63165;43.016;25.784;2023-03-15T08:53:55;98687.81;;;16.47;33.94
9523;BME280;63165;43.016;25.784;2023-03-15T08:56:22;98687.16;;;16.58;33.89
9523;BME280;63165;43.016;25.784;2023-03-15T08:58:49;98655.88;;;16.52;33.29
9523;BME280;63165;43.016;25.784;2023-03-15T09:01:16;98689.88;;;16.71;32.90
9523;BME280;63165;43.016;25.784;2023-03-15T09:03:43;98653.81;;;16.70;32.39
9523;BME280;63165;43.016;25.784;2023-03-15T09:06:11;98685.34;;;16.87;32.51
9523;BME280;63165;43.016;25.784;2023-03-15T09:08:39;98680.38;;;16.96;32.61
9523;BME280;63165;43.016;25.784;2023-03-15T09:11:07;98673.44;;;17.07;32.40
9523;BME280;63165;43.016;25.784;2023-03-15T09:13:35;98683.09;;;17.08;31.99
9523;BME280;63165;43.016;25.784;2023-03-15T09:16:02;98680.25;;;17.12;31.84
9523;BME280;63165;43.016;25.784;2023-03-15T09:18:30;98685.78;;;17.21;32.24
9523;BME280;63165;43.016;25.784;2023-03-15T09:20:58;98665.56;;;17.20;31.65
9523;BME280;63165;43.016;25.784;2023-03-15T09:23:26;98672.78;;;17.31;32.23
9523;BME280;63165;43.016;25.784;2023-03-15T09:25:55;98641.16;;;17.30;32.21
9523;BME280;63165;43.016;25.784;2023-03-15T09:28:22;98670.41;;;17.54;32.72
9523;BME280;63165;43.016;25.784;2023-03-15T09:30:51;98662.59;;;17.78;32.64
9523;BME280;63165;43.016;25.784;2023-03-15T09:33:19;98641.78;;;17.86;33.27
9523;BME280;63165;43.016;25.784;2023-03-15T09:35:51;98651.22;;;18.03;32.62
9523;BME280;63165;43.016;25.784;2023-03-15T09:38:18;98641.56;;;18.15;31.72
9523;BME280;63165;43.016;25.784;2023-03-15T09:40:46;98640.47;;;18.30;30.70
9523;BME280;63165;43.016;25.784;2023-03-15T09:43:34;98642.31;;;18.54;30.34
9523;BME280;63165;43.016;25.784;2023-03-15T09:46:13;98632.28;;;18.70;30.67
9523;BME280;63165;43.016;25.784;2023-03-15T09:48:49;98626.91;;;18.96;30.66
9523;BME280;63165;43.016;25.784;2023-03-15T09:51:21;98621.81;;;19.17;31.21
9523;BME280;63165;43.016;25.784;2023-03-15T09:53:57;98618.13;;;19.31;30.11
9523;BME280;63165;43.016;25.784;2023-03-15T09:56:28;98609.47;;;19.40;29.22
9523;BME280;63165;43.016;25.784;2023-03-15T09:59:00;98620.75;;;19.66;29.04
9523;BME280;63165;43.016;25.784;2023-03-15T10:01:30;98601.59;;;19.74;28.93
9523;BME280;63165;43.016;25.784;2023-03-15T10:04:03;98613.91;;;19.86;28.43
9523;BME280;63165;43.016;25.784;2023-03-15T10:06:35;98599.06;;;19.72;28.10
9523;BME280;63165;43.016;25.784;2023-03-15T10:09:09;98604.75;;;19.90;28.01
9523;BME280;63165;43.016;25.784;2023-03-15T10:11:42;98605.47;;;19.92;28.52
9523;BME280;63165;43.016;25.784;2023-03-15T10:14:23;98572.91;;;19.90;28.39
9523;BME280;63165;43.016;25.784;2023-03-15T10:16:54;98604.03;;;20.00;28.34
9523;BME280;63165;43.016;25.784;2023-03-15T10:19:26;98593.88;;;19.93;28.21
9523;BME280;63165;43.016;25.784;2023-03-15T10:22:01;98572.53;;;19.72;27.84
9523;BME280;63165;43.016;25.784;2023-03-15T10:24:34;98570.34;;;19.66;27.71
9523;BME280;63165;43.016;25.784;2023-03-15T10:27:13;98585.88;;;19.71;28.04
9523;BME280;63165;43.016;25.784;2023-03-15T10:29:43;98573.31;;;19.62;27.51
9523;BME280;63165;43.016;25.784;2023-03-15T10:32:15;98589.84;;;19.54;27.48
9523;BME280;63165;43.016;25.784;2023-03-15T10:34:46;98588.00;;;19.43;27.75
9523;BME280;63165;43.016;25.784;2023-03-15T10:37:14;98589.19;;;19.28;28.14
9523;BME280;63165;43.016;25.784;2023-03-15T10:39:43;98587.75;;;19.24;27.78
9523;BME280;63165;43.016;25.784;2023-03-15T10:42:26;98583.03;;;19.16;28.34
9523;BME280;63165;43.016;25.784;2023-03-15T10:44:55;98590.34;;;19.12;28.06
9523;BME280;63165;43.016;25.784;2023-03-15T10:47:24;98587.09;;;19.09;26.74
9523;BME280;63165;43.016;25.784;2023-03-15T10:49:56;98577.75;;;18.92;26.03
9523;BME280;63165;43.016;25.784;2023-03-15T10:52:34;98535.75;;;18.74;25.17
9523;BME280;63165;43.016;25.784;2023-03-15T10:55:05;98568.72;;;18.94;25.29
9523;BME280;63165;43.016;25.784;2023-03-15T10:57:37;98574.25;;;18.91;24.84
9523;BME280;63165;43.016;25.784;2023-03-15T11:00:24;98571.63;;;18.91;25.30
9523;BME280;63165;43.016;25.784;2023-03-15T11:03:01;98574.59;;;18.87;25.33
9523;BME280;63165;43.016;25.784;2023-03-15T11:05:30;98574.47;;;18.88;25.16
9523;BME280;63165;43.016;25.784;2023-03-15T11:07:59;98577.75;;;18.92;25.88
9523;BME280;63165;43.016;25.784;2023-03-15T11:10:28;98581.34;;;18.91;26.63
9523;BME280;63165;43.016;25.784;2023-03-15T11:13:10;98579.59;;;18.78;25.67
9523;BME280;63165;43.016;25.784;2023-03-15T11:15:47;98577.53;;;18.71;25.95
9523;BME280;63165;43.016;25.784;2023-03-15T11:18:19;98577.41;;;18.72;26.12
9523;BME280;63165;43.016;25.784;2023-03-15T11:20:51;98560.38;;;18.63;26.35
9523;BME280;63165;43.016;25.784;2023-03-15T11:23:22;98569.84;;;18.79;26.41
9523;BME280;63165;43.016;25.784;2023-03-15T11:25:51;98555.19;;;18.62;25.83
9523;BME280;63165;43.016;25.784;2023-03-15T11:28:21;98551.34;;;18.66;26.00
9523;BME280;63165;43.016;25.784;2023-03-15T11:30:51;98558.34;;;18.67;26.39
9523;BME280;63165;43.016;25.784;2023-03-15T11:33:26;98567.53;;;18.74;26.96
9523;BME280;63165;43.016;25.784;2023-03-15T11:35:58;98578.22;;;18.86;27.28
9523;BME280;63165;43.016;25.784;2023-03-15T11:38:29;98583.28;;;18.89;27.16
9523;BME280;63165;43.016;25.784;2023-03-15T11:41:02;98556.59;;;18.79;27.06
9523;BME280;63165;43.016;25.784;2023-03-15T11:43:40;98568.72;;;18.94;26.32
9523;BME280;63165;43.016;25.784;2023-03-15T11:46:19;98557.50;;;18.91;26.91
9523;BME280;63165;43.016;25.784;2023-03-15T11:48:51;98554.75;;;18.92;26.81
9523;BME280;63165;43.016;25.784;2023-03-15T11:51:21;98544.56;;;19.10;26.99
9523;BME280;63165;43.016;25.784;2023-03-15T11:54:00;98545.53;;;19.20;26.99
9523;BME280;63165;43.016;25.784;2023-03-15T11:56:46;98541.72;;;19.25;27.04
9523;BME280;63165;43.016;25.784;2023-03-15T11:59:15;98540.13;;;19.33;26.73
9523;BME280;63165;43.016;25.784;2023-03-15T12:01:47;98541.13;;;19.44;26.75
9523;BME280;63165;43.016;25.784;2023-03-15T12:04:43;98537.50;;;19.56;26.35
9523;BME280;63165;43.016;25.784;2023-03-15T12:07:35;98537.28;;;19.70;26.80
9523;BME280;63165;43.016;25.784;2023-03-15T12:10:29;98522.59;;;19.77;25.69
9523;BME280;63165;43.016;25.784;2023-03-15T12:12:59;98517.19;;;19.79;26.40
9523;BME280;63165;43.016;25.784;2023-03-15T12:15:49;98514.16;;;19.84;25.65
9523;BME280;63165;43.016;25.784;2023-03-15T12:18:40;98508.13;;;19.93;25.78
9523;BME280;63165;43.016;25.784;2023-03-15T12:21:20;98518.09;;;20.01;25.49
9523;BME280;63165;43.016;25.784;2023-03-15T12:23:57;98515.09;;;20.05;25.47
9523;BME280;63165;43.016;25.784;2023-03-15T12:26:39;98502.75;;;20.15;26.14
9523;BME280;63165;43.016;25.784;2023-03-15T12:29:19;98511.75;;;20.35;26.46
9523;BME280;63165;43.016;25.784;2023-03-15T12:31:53;98503.69;;;20.37;25.96
9523;BME280;63165;43.016;25.784;2023-03-15T12:34:35;98504.28;;;20.41;26.05
9523;BME280;63165;43.016;25.784;2023-03-15T12:37:06;98484.50;;;20.33;25.58
9523;BME280;63165;43.016;25.784;2023-03-15T12:39:38;98498.97;;;20.41;25.81
9523;BME280;63165;43.016;25.784;2023-03-15T12:42:12;98497.72;;;20.45;25.94
9523;BME280;63165;43.016;25.784;2023-03-15T12:44:41;98491.81;;;20.41;25.38
9523;BME280;63165;43.016;25.784;2023-03-15T12:47:09;98499.22;;;20.26;25.73
9523;BME280;63165;43.016;25.784;2023-03-15T12:49:40;98487.78;;;20.26;25.53
9523;BME280;63165;43.016;25.784;2023-03-15T12:52:36;98495.06;;;20.45;26.70
9523;BME280;63165;43.016;25.784;2023-03-15T12:55:13;98491.38;;;20.57;26.55
9523;BME280;63165;43.016;25.784;2023-03-15T12:57:46;98483.03;;;20.41;26.07
9523;BME280;63165;43.016;25.784;2023-03-15T13:00:16;98466.38;;;20.27;26.08
9523;BME280;63165;43.016;25.784;2023-03-15T13:02:48;98507.38;;;20.46;26.07
9523;BME280;63165;43.016;25.784;2023-03-15T13:05:23;98508.13;;;20.36;26.36
9523;BME280;63165;43.016;25.784;2023-03-15T13:07:55;98523.25;;;20.25;26.84
9523;BME280;63165;43.016;25.784;2023-03-15T13:13:34;98531.25;;;20.02;27.48
9523;BME280;63165;43.016;25.784;2023-03-15T13:16:25;98523.09;;;19.94;27.79
9523;BME280;63165;43.016;25.784;2023-03-15T13:19:00;98539.59;;;19.97;27.57
9523;BME280;63165;43.016;25.784;2023-03-15T13:21:35;98524.66;;;19.74;27.70
9523;BME280;63165;43.016;25.784;2023-03-15T13:24:11;98536.81;;;19.76;27.52
9523;BME280;63165;43.016;25.784;2023-03-15T13:26:52;98521.97;;;19.51;27.27